Time;durP1;ratioP1;P1;durP2;ratioP2;P2;SDS_P1;SDS_P2;PMS_P1;PMS_P2;Temp;Humidity;BMP_temperature;BMP_pressure;BME280_temperature;BME280_humidity;BME280_pressure;Samples;Min_cycle;Max_cycle;Signal;HPM_P1;HPM_P2
2023/03/03 00:02:22;;;;;;;0.60;0.60;;;3.50;99.90;;;;;;6164279;23;20008;-82
2023/03/03 00:04:48;;;;;;;0.60;0.60;;;3.50;99.90;;;;;;6189427;23;20442;-82
2023/03/03 00:07:20;;;;;;;0.57;0.57;;;3.50;99.90;;;;;;6164672;23;20463;-82
2023/03/03 00:09:46;;;;;;;0.60;0.60;;;3.50;99.90;;;;;;6189949;23;20012;-82
2023/03/03 00:12:29;;;;;;;0.60;0.60;;;3.40;99.90;;;;;;6189813;23;20362;-82
2023/03/03 00:14:55;;;;;;;0.60;0.60;;;3.40;99.90;;;;;;6189272;23;20016;-82
2023/03/03 00:17:29;;;;;;;0.70;0.70;;;3.40;99.90;;;;;;6164352;23;20381;-82
2023/03/03 00:19:55;;;;;;;0.57;0.57;;;3.40;99.90;;;;;;6189289;23;20044;-82
2023/03/03 00:22:39;;;;;;;0.63;0.63;;;3.40;99.90;;;;;;6189794;23;20008;-82
2023/03/03 00:25:27;;;;;;;0.60;0.60;;;3.40;99.90;;;;;;6189262;23;20062;-82
2023/03/03 00:27:53;;;;;;;0.52;0.52;;;3.40;99.90;;;;;;6189795;23;20012;-82
2023/03/03 00:30:26;;;;;;;0.60;0.60;;;3.40;99.90;;;;;;6164512;23;20112;-82
2023/03/03 00:32:54;;;;;;;0.50;0.50;;;3.40;99.90;;;;;;6216120;23;20008;-82
2023/03/03 00:35:26;;;;;;;0.60;0.60;;;3.40;99.90;;;;;;6189072;23;20021;-82
2023/03/03 00:38:00;;;;;;;1.20;0.60;;;3.40;99.90;;;;;;6189619;23;20012;-82
2023/03/03 00:40:29;;;;;;;1.00;0.80;;;3.30;99.90;;;;;;6189242;23;20048;-82
2023/03/03 00:42:58;;;;;;;0.70;0.70;;;3.30;99.90;;;;;;6216115;23;20016;-82
2023/03/03 00:45:47;;;;;;;0.68;0.68;;;3.30;99.90;;;;;;6164866;23;20013;-82
2023/03/03 00:48:20;;;;;;;1.85;0.88;;;3.20;99.90;;;;;;6216237;23;20071;-82
2023/03/03 00:50:45;;;;;;;1.15;0.80;;;3.20;99.90;;;;;;6189712;23;20023;-82
2023/03/03 00:53:16;;;;;;;0.80;0.80;;;3.20;99.90;;;;;;6215784;23;20013;-82
2023/03/03 00:55:41;;;;;;;2.78;1.00;;;3.10;99.90;;;;;;6164783;23;20009;-82
2023/03/03 00:58:07;;;;;;;0.80;0.80;;;3.10;99.90;;;;;;6189280;23;20341;-82
2023/03/03 01:00:34;;;;;;;1.70;0.73;;;3.00;99.90;;;;;;6189025;23;20055;-82
2023/03/03 01:03:03;;;;;;;3.85;1.13;;;3.00;99.90;;;;;;6189279;23;20012;-82
2023/03/03 01:05:29;;;;;;;1.52;1.00;;;3.00;99.90;;;;;;6188996;23;20024;-82
2023/03/03 01:07:55;;;;;;;2.22;0.98;;;3.00;99.90;;;;;;6189032;23;20009;-81
2023/03/03 01:10:21;;;;;;;3.53;1.20;;;3.00;99.90;;;;;;6189042;23;20009;-81
2023/03/03 01:12:47;;;;;;;1.55;0.85;;;2.90;99.90;;;;;;6164424;23;20013;-81
2023/03/03 01:15:14;;;;;;;1.80;1.00;;;2.80;99.90;;;;;;6189478;23;20016;-81
2023/03/03 01:17:40;;;;;;;9.55;1.50;;;2.90;99.90;;;;;;6189545;23;20024;-82
2023/03/03 01:20:08;;;;;;;10.05;1.80;;;2.70;99.90;;;;;;6189181;23;20008;-81
2023/03/03 01:22:33;;;;;;;4.88;1.08;;;2.80;99.90;;;;;;6215526;23;20013;-82
2023/03/03 01:24:59;;;;;;;6.45;1.30;;;2.80;99.90;;;;;;6217144;23;20031;-82
2023/03/03 01:27:26;;;;;;;6.13;1.40;;;2.80;99.90;;;;;;6216121;23;20019;-82
2023/03/03 01:29:52;;;;;;;4.82;1.30;;;2.80;99.90;;;;;;6189196;23;20100;-82
2023/03/03 01:32:18;;;;;;;6.28;1.42;;;2.90;99.90;;;;;;6216257;23;20040;-81
2023/03/03 01:34:43;;;;;;;23.38;2.75;;;2.80;99.90;;;;;;6189129;23;20096;-82
2023/03/03 01:37:09;;;;;;;12.23;1.98;;;2.70;99.90;;;;;;6189296;23;20450;-82
2023/03/03 01:39:34;;;;;;;24.15;3.42;;;2.70;99.90;;;;;;6166325;23;20016;-81
2023/03/03 01:42:02;;;;;;;15.63;2.28;;;2.70;99.90;;;;;;6217142;23;20012;-82
2023/03/03 01:44:28;;;;;;;12.50;2.10;;;2.70;99.90;;;;;;6190614;23;20016;-81
2023/03/03 01:47:12;;;;;;;4.03;1.58;;;2.70;99.90;;;;;;6190693;23;20346;-82
2023/03/03 01:49:55;;;;;;;9.95;1.65;;;2.80;99.90;;;;;;6217163;23;20017;-82
2023/03/03 01:52:34;;;;;;;13.52;2.38;;;2.80;99.90;;;;;;6217577;23;20009;-82
2023/03/03 01:55:05;;;;;;;7.07;1.67;;;2.80;99.90;;;;;;6217554;23;20385;-82
2023/03/03 01:57:37;;;;;;;8.93;1.98;;;2.80;99.90;;;;;;6217494;23;20005;-81
2023/03/03 02:00:04;;;;;;;28.08;3.83;;;2.70;99.90;;;;;;6166081;23;20013;-82
2023/03/03 02:02:31;;;;;;;31.20;3.67;;;2.80;99.90;;;;;;6165618;23;20020;-82
2023/03/03 02:04:57;;;;;;;6.95;1.52;;;2.70;99.90;;;;;;6217155;23;20441;-82
2023/03/03 02:07:26;;;;;;;14.65;2.10;;;2.70;99.90;;;;;;6190320;23;20071;-82
2023/03/03 02:10:07;;;;;;;21.13;3.85;;;2.80;99.90;;;;;;6190554;23;20078;-81
2023/03/03 02:12:48;;;;;;;26.60;5.03;;;2.70;99.90;;;;;;6190344;23;20008;-81
2023/03/03 02:15:31;;;;;;;6.75;1.52;;;2.70;99.90;;;;;;6190465;23;20027;-82
2023/03/03 02:18:00;;;;;;;21.48;3.28;;;2.70;99.90;;;;;;6190396;23;20016;-82
2023/03/03 02:20:44;;;;;;;15.73;2.33;;;2.60;99.90;;;;;;6190402;23;20017;-82
2023/03/03 02:23:34;;;;;;;27.92;3.95;;;2.60;99.90;;;;;;6216907;23;20062;-82
2023/03/03 02:26:19;;;;;;;32.17;3.78;;;2.60;99.90;;;;;;6190254;23;20024;-81
2023/03/03 02:28:45;;;;;;;16.58;2.50;;;2.70;99.90;;;;;;6217618;23;20004;-81
2023/03/03 02:31:16;;;;;;;28.05;4.60;;;2.60;99.90;;;;;;6216810;23;20190;-81
2023/03/03 02:33:44;;;;;;;13.52;2.03;;;2.60;99.90;;;;;;6217102;23;20326;-81
2023/03/03 02:36:21;;;;;;;29.80;4.13;;;2.70;99.90;;;;;;6165364;23;20013;-81
2023/03/03 02:39:11;;;;;;;27.23;3.97;;;2.70;99.90;;;;;;6190167;23;20012;-81
2023/03/03 02:41:54;;;;;;;26.45;5.05;;;2.60;99.90;;;;;;6216597;23;20012;-82
2023/03/03 02:44:25;;;;;;;37.22;5.00;;;2.60;99.90;;;;;;6217043;23;20099;-82
2023/03/03 02:46:53;;;;;;;41.67;7.30;;;2.60;99.90;;;;;;6190869;23;20021;-81
2023/03/03 02:49:22;;;;;;;35.50;6.68;;;2.60;99.90;;;;;;6165177;23;20078;-81
2023/03/03 02:51:48;;;;;;;29.83;5.40;;;2.70;99.90;;;;;;6190069;23;20027;-82
2023/03/03 02:54:16;;;;;;;26.65;4.93;;;2.60;99.90;;;;;;6217195;23;20048;-82
2023/03/03 02:56:42;;;;;;;25.05;4.03;;;2.70;99.90;;;;;;6216943;23;20015;-81
2023/03/03 02:59:08;;;;;;;46.33;9.52;;;2.70;99.90;;;;;;6216969;23;20009;-81
2023/03/03 03:01:37;;;;;;;15.25;2.17;;;2.60;99.90;;;;;;6190150;23;20013;-82
2023/03/03 03:04:10;;;;;;;40.65;7.32;;;2.60;99.90;;;;;;6216912;23;20009;-81
2023/03/03 03:06:36;;;;;;;42.38;8.10;;;2.60;99.90;;;;;;6190521;23;20008;-81
2023/03/03 03:09:03;;;;;;;38.70;6.05;;;2.60;99.90;;;;;;6190007;23;20500;-82
2023/03/03 03:11:28;;;;;;;38.35;9.38;;;2.50;99.90;;;;;;6216743;23;20015;-81
2023/03/03 03:13:54;;;;;;;30.67;6.05;;;2.50;99.90;;;;;;6216223;23;20083;-81
2023/03/03 03:16:20;;;;;;;17.42;4.53;;;2.60;99.90;;;;;;6189834;23;20016;-81
2023/03/03 03:18:45;;;;;;;32.30;7.68;;;2.60;99.90;;;;;;6216603;23;20013;-81
2023/03/03 03:21:12;;;;;;;16.27;2.95;;;2.60;99.90;;;;;;6189697;23;20012;-81
2023/03/03 03:23:39;;;;;;;46.03;9.77;;;2.60;99.90;;;;;;6189694;23;20075;-82
2023/03/03 03:26:06;;;;;;;31.20;7.00;;;2.70;99.90;;;;;;6189644;23;20088;-82
2023/03/03 03:28:31;;;;;;;24.98;6.55;;;2.80;99.90;;;;;;6216614;23;20012;-81
2023/03/03 03:30:57;;;;;;;30.83;5.93;;;2.70;99.90;;;;;;6216607;23;20008;-81
2023/03/03 03:33:24;;;;;;;35.30;9.88;;;2.70;99.90;;;;;;6216053;23;20008;-81
2023/03/03 03:35:50;;;;;;;34.03;9.80;;;2.70;99.90;;;;;;6216520;23;20017;-81
2023/03/03 03:38:16;;;;;;;43.20;9.60;;;2.70;99.90;;;;;;6164825;23;20023;-82
2023/03/03 03:40:42;;;;;;;49.53;12.07;;;2.70;99.90;;;;;;6216385;23;20055;-81
2023/03/03 03:43:08;;;;;;;64.75;13.45;;;2.70;99.90;;;;;;6215663;23;20020;-81
2023/03/03 03:45:34;;;;;;;32.85;9.82;;;2.70;99.90;;;;;;6216527;23;20008;-81
2023/03/03 03:47:59;;;;;;;28.77;6.43;;;2.60;99.90;;;;;;6189742;23;20016;-81
2023/03/03 03:50:26;;;;;;;46.47;10.63;;;2.60;99.90;;;;;;6216288;23;20008;-82
2023/03/03 03:52:51;;;;;;;30.05;6.53;;;2.50;99.90;;;;;;6216362;23;20075;-81
2023/03/03 03:55:17;;;;;;;45.33;11.85;;;2.60;99.90;;;;;;6164673;23;20044;-81
2023/03/03 03:57:43;;;;;;;56.90;12.23;;;2.70;99.90;;;;;;6189513;23;20040;-81
2023/03/03 04:00:10;;;;;;;49.00;11.30;;;2.70;99.90;;;;;;6189112;23;20024;-81
2023/03/03 04:02:36;;;;;;;16.40;4.18;;;2.60;99.90;;;;;;6216306;23;20322;-82
2023/03/03 04:05:02;;;;;;;43.25;13.57;;;2.60;99.90;;;;;;6216243;23;20051;-82
2023/03/03 04:07:28;;;;;;;4.78;1.83;;;2.50;99.90;;;;;;6215992;23;20066;-82
2023/03/03 04:09:54;;;;;;;12.70;5.95;;;2.60;99.90;;;;;;6216533;23;20421;-82
2023/03/03 04:12:20;;;;;;;18.77;5.70;;;2.70;99.90;;;;;;6216189;23;20008;-82
2023/03/03 04:14:45;;;;;;;2.90;1.63;;;2.90;99.90;;;;;;6216186;23;20329;-82
2023/03/03 04:17:18;;;;;;;3.33;1.80;;;2.90;99.90;;;;;;6215911;23;20009;-82
2023/03/03 04:19:44;;;;;;;14.10;3.65;;;2.90;99.90;;;;;;6216300;23;20008;-82
2023/03/03 04:22:11;;;;;;;7.47;1.70;;;2.90;99.90;;;;;;6189308;23;20040;-82
2023/03/03 04:24:37;;;;;;;4.25;1.50;;;3.00;99.90;;;;;;6164735;23;20087;-82
2023/03/03 04:27:03;;;;;;;23.20;6.18;;;3.10;99.90;;;;;;6189366;23;20048;-82
2023/03/03 04:29:28;;;;;;;3.60;1.30;;;3.00;99.90;;;;;;6216362;23;20035;-81
2023/03/03 04:31:54;;;;;;;5.18;1.35;;;3.00;99.90;;;;;;6190250;23;20330;-82
2023/03/03 04:34:20;;;;;;;10.35;2.20;;;3.10;99.90;;;;;;6189251;23;20445;-82
2023/03/03 04:36:45;;;;;;;8.55;2.25;;;3.00;99.90;;;;;;6189977;23;20005;-82
2023/03/03 04:39:11;;;;;;;11.93;2.30;;;3.20;99.90;;;;;;6189595;23;20009;-82
2023/03/03 04:41:37;;;;;;;2.50;1.10;;;3.10;99.90;;;;;;6189183;23;20012;-82
2023/03/03 04:44:02;;;;;;;1.48;1.00;;;3.00;99.90;;;;;;6164514;23;20507;-82
2023/03/03 04:46:28;;;;;;;1.15;1.05;;;3.20;99.90;;;;;;6189396;23;20040;-82
2023/03/03 04:48:54;;;;;;;3.60;1.00;;;3.10;99.90;;;;;;6189843;23;20016;-81
2023/03/03 04:51:20;;;;;;;10.00;2.17;;;3.10;99.90;;;;;;6189627;23;20426;-82
2023/03/03 04:53:46;;;;;;;5.13;1.38;;;3.10;99.90;;;;;;6164562;23;20074;-82
2023/03/03 04:56:11;;;;;;;16.63;2.83;;;3.20;99.90;;;;;;6216134;23;20005;-82
2023/03/03 04:58:37;;;;;;;3.20;1.08;;;3.00;99.90;;;;;;6189660;23;20040;-82
2023/03/03 05:01:03;;;;;;;3.35;1.00;;;3.00;99.90;;;;;;6164410;23;20013;-82
2023/03/03 05:03:28;;;;;;;1.27;1.00;;;3.10;99.90;;;;;;6189246;23;20117;-82
2023/03/03 05:05:54;;;;;;;1.52;1.00;;;3.10;99.90;;;;;;6189319;23;20013;-81
2023/03/03 05:08:20;;;;;;;9.05;2.53;;;3.10;99.90;;;;;;6216088;23;20063;-81
2023/03/03 05:10:45;;;;;;;0.90;0.90;;;3.20;99.90;;;;;;6190263;23;20422;-81
2023/03/03 05:13:14;;;;;;;15.93;2.60;;;3.10;99.90;;;;;;6190152;23;20015;-81
2023/03/03 05:15:39;;;;;;;15.45;2.50;;;3.10;99.90;;;;;;6190967;23;20028;-82
2023/03/03 05:18:05;;;;;;;11.88;1.95;;;3.00;99.90;;;;;;6191401;23;20013;-82
2023/03/03 05:20:31;;;;;;;11.13;1.98;;;3.00;99.90;;;;;;6190870;23;20504;-82
2023/03/03 05:22:58;;;;;;;2.72;0.93;;;2.90;99.90;;;;;;6190742;23;20442;-82
2023/03/03 05:25:24;;;;;;;3.78;1.10;;;2.90;99.90;;;;;;6190817;23;20013;-82
2023/03/03 05:27:49;;;;;;;4.75;1.10;;;3.00;99.90;;;;;;6190855;23;20038;-82
2023/03/03 05:30:15;;;;;;;11.98;2.65;;;2.90;99.90;;;;;;6217673;23;20017;-82
2023/03/03 05:32:41;;;;;;;6.30;1.30;;;2.90;99.90;;;;;;6165993;23;20020;-82
2023/03/03 05:35:06;;;;;;;7.97;1.45;;;3.00;99.90;;;;;;6190720;23;20016;-81
2023/03/03 05:37:32;;;;;;;13.95;2.08;;;3.10;99.90;;;;;;6190641;23;20084;-82
2023/03/03 05:39:58;;;;;;;22.80;3.08;;;3.10;99.90;;;;;;6165939;23;20012;-81
2023/03/03 05:42:23;;;;;;;16.13;2.17;;;2.90;99.90;;;;;;6217674;23;20013;-82
2023/03/03 05:44:49;;;;;;;14.45;2.15;;;2.80;99.90;;;;;;6217281;23;20070;-81
2023/03/03 05:47:15;;;;;;;24.98;2.83;;;2.70;99.90;;;;;;6190743;23;20019;-81
2023/03/03 05:49:40;;;;;;;29.05;3.28;;;2.50;99.90;;;;;;6217651;23;20013;-82
2023/03/03 05:52:07;;;;;;;18.15;3.17;;;2.60;99.90;;;;;;6191077;23;20008;-82
2023/03/03 05:54:33;;;;;;;31.98;3.90;;;2.60;99.90;;;;;;6165772;23;20009;-82
2023/03/03 05:56:59;;;;;;;28.73;3.13;;;2.50;99.90;;;;;;6190594;23;20013;-81
2023/03/03 05:59:24;;;;;;;36.20;4.57;;;2.40;99.90;;;;;;6190426;23;20013;-82
2023/03/03 06:01:50;;;;;;;39.47;5.05;;;2.30;99.90;;;;;;6217585;23;20079;-82
2023/03/03 06:04:16;;;;;;;49.30;5.32;;;2.30;99.90;;;;;;6165718;23;20020;-81
2023/03/03 06:06:42;;;;;;;47.15;4.95;;;2.30;99.90;;;;;;6165540;23;20468;-81
2023/03/03 06:09:07;;;;;;;43.22;6.68;;;2.30;99.90;;;;;;6217617;23;20032;-82
2023/03/03 06:11:33;;;;;;;35.42;6.10;;;2.30;99.90;;;;;;6165630;23;20095;-82
2023/03/03 06:13:59;;;;;;;29.55;3.92;;;2.30;99.90;;;;;;6190346;23;20016;-82
2023/03/03 06:16:25;;;;;;;35.95;6.90;;;2.40;99.90;;;;;;6191317;23;20092;-81
2023/03/03 06:18:50;;;;;;;37.92;5.03;;;2.30;99.90;;;;;;6190916;23;20376;-82
2023/03/03 06:21:16;;;;;;;38.45;4.68;;;2.50;99.90;;;;;;6190426;23;20008;-81
2023/03/03 06:23:41;;;;;;;34.47;3.78;;;2.40;99.90;;;;;;6190102;23;20020;-82
2023/03/03 06:26:08;;;;;;;36.28;3.85;;;2.30;99.90;;;;;;6190765;23;20012;-82
2023/03/03 06:28:33;;;;;;;24.80;3.28;;;2.20;99.90;;;;;;6165623;23;20151;-82
2023/03/03 06:30:59;;;;;;;42.20;4.32;;;2.20;99.90;;;;;;6217131;23;20017;-82
2023/03/03 06:33:25;;;;;;;20.08;2.67;;;2.20;99.90;;;;;;6190626;23;20008;-81
2023/03/03 06:35:52;;;;;;;44.55;5.20;;;2.00;99.90;;;;;;6165477;23;20012;-82
2023/03/03 06:38:18;;;;;;;40.65;4.47;;;2.10;99.90;;;;;;6190132;23;20008;-82
2023/03/03 06:40:45;;;;;;;25.90;3.35;;;2.00;99.90;;;;;;6190052;23;20016;-81
2023/03/03 06:43:11;;;;;;;32.58;4.25;;;2.20;99.90;;;;;;6190664;23;20024;-81
2023/03/03 06:45:37;;;;;;;35.00;4.30;;;2.10;99.90;;;;;;6190142;23;20020;-81
2023/03/03 06:48:02;;;;;;;28.77;3.95;;;2.00;99.90;;;;;;6190229;23;20008;-81
2023/03/03 06:50:28;;;;;;;24.45;3.10;;;1.90;99.90;;;;;;6190055;23;20143;-82
2023/03/03 06:53:05;;;;;;;32.50;4.50;;;2.10;99.90;;;;;;6217031;23;20248;-82
2023/03/03 06:55:31;;;;;;;21.73;3.80;;;2.10;99.90;;;;;;6216683;23;20013;-82
2023/03/03 06:57:57;;;;;;;27.45;3.30;;;2.10;99.90;;;;;;6164824;23;20015;-82
2023/03/03 07:00:25;;;;;;;9.10;1.58;;;2.10;99.90;;;;;;6189962;23;20040;-82
2023/03/03 07:03:06;;;;;;;30.08;4.70;;;2.10;99.90;;;;;;6189975;23;20040;-82
2023/03/03 07:05:33;;;;;;;5.07;1.13;;;2.20;99.90;;;;;;6165087;23;20067;-82
2023/03/03 07:07:59;;;;;;;8.13;1.48;;;2.40;99.90;;;;;;6165087;23;20024;-82
2023/03/03 07:10:29;;;;;;;28.05;3.78;;;2.50;99.90;;;;;;6217098;23;20429;-82
2023/03/03 07:13:01;;;;;;;4.78;1.00;;;2.50;99.90;;;;;;6190342;23;20013;-82
2023/03/03 07:15:34;;;;;;;20.63;4.57;;;2.30;99.90;;;;;;6189871;23;20055;-82
2023/03/03 07:18:01;;;;;;;22.33;2.72;;;2.40;99.90;;;;;;6216847;23;20016;-82
2023/03/03 07:20:34;;;;;;;29.23;3.22;;;2.20;99.90;;;;;;6216734;23;20092;-82
2023/03/03 07:22:59;;;;;;;19.05;2.63;;;2.20;99.90;;;;;;6216713;23;20058;-82
2023/03/03 07:25:31;;;;;;;15.32;2.83;;;2.30;99.90;;;;;;6190144;23;20013;-82
2023/03/03 07:28:27;;;;;;;19.20;2.65;;;2.30;99.90;;;;;;6165185;23;20019;-82
2023/03/03 07:30:54;;;;;;;25.67;3.53;;;2.30;99.90;;;;;;6155642;23;20012;-82
2023/03/03 07:33:30;;;;;;;20.77;2.13;;;2.30;99.90;;;;;;6189628;23;20008;-82
2023/03/03 07:36:02;;;;;;;22.27;3.22;;;2.40;99.90;;;;;;6189797;23;20156;-82
2023/03/03 07:38:39;;;;;;;20.33;2.45;;;2.30;99.90;;;;;;6216677;23;20009;-82
2023/03/03 07:41:13;;;;;;;29.35;3.78;;;2.20;99.90;;;;;;6216411;23;20009;-82
2023/03/03 07:43:42;;;;;;;19.85;2.78;;;2.40;99.90;;;;;;6164881;23;20021;-82
2023/03/03 07:46:33;;;;;;;16.42;2.65;;;2.50;99.90;;;;;;6190200;23;20034;-82
2023/03/03 07:49:00;;;;;;;17.33;2.83;;;2.50;99.90;;;;;;6190006;23;20063;-82
2023/03/03 07:51:42;;;;;;;16.15;2.97;;;2.40;99.90;;;;;;6164890;23;20016;-82
2023/03/03 07:54:35;;;;;;;21.15;3.33;;;2.40;99.90;;;;;;6189913;23;20275;-82
2023/03/03 07:57:19;;;;;;;13.70;2.05;;;2.40;99.90;;;;;;6211315;23;20082;-82
2023/03/03 07:59:49;;;;;;;28.45;3.55;;;2.60;99.90;;;;;;6189538;23;20092;-82
2023/03/03 08:02:29;;;;;;;8.00;1.83;;;2.40;99.90;;;;;;6189686;23;20311;-82
2023/03/03 08:04:55;;;;;;;23.10;2.72;;;2.60;99.90;;;;;;6190057;23;20043;-84
2023/03/03 08:07:22;;;;;;;15.95;2.83;;;2.40;99.90;;;;;;6190349;23;20023;-84
2023/03/03 08:09:55;;;;;;;15.82;2.80;;;2.60;99.90;;;;;;6216868;23;20005;-81
2023/03/03 08:12:37;;;;;;;16.33;3.13;;;2.60;99.90;;;;;;6165167;23;20088;-82
2023/03/03 08:15:24;;;;;;;16.25;3.20;;;2.50;99.90;;;;;;6189516;23;20016;-85
2023/03/03 08:17:52;;;;;;;21.80;3.10;;;2.50;99.90;;;;;;6165045;23;20092;-84
2023/03/03 08:20:46;;;;;;;13.18;2.20;;;2.50;99.90;;;;;;6164529;23;20020;-80
2023/03/03 08:23:13;;;;;;;13.88;2.72;;;2.70;99.90;;;;;;6164571;23;20086;-81
2023/03/03 08:25:41;;;;;;;16.98;3.05;;;2.70;99.90;;;;;;6216375;23;20012;-82
2023/03/03 08:28:07;;;;;;;13.55;2.13;;;2.50;99.90;;;;;;6189662;23;20013;-80
2023/03/03 08:30:33;;;;;;;21.10;3.08;;;2.50;99.90;;;;;;6189335;23;20016;-79
2023/03/03 08:33:00;;;;;;;8.05;2.55;;;2.60;99.90;;;;;;6189728;23;20507;-82
2023/03/03 08:35:26;;;;;;;14.98;2.83;;;2.80;99.90;;;;;;6164410;23;20013;-81
2023/03/03 08:37:51;;;;;;;13.90;2.15;;;2.80;99.90;;;;;;6189255;23;20094;-78
2023/03/03 08:40:17;;;;;;;10.23;2.08;;;2.90;99.90;;;;;;6188929;23;20310;-78
2023/03/03 08:42:43;;;;;;;10.07;1.90;;;3.00;99.90;;;;;;6189298;23;20020;-78
2023/03/03 08:45:08;;;;;;;19.08;3.25;;;3.00;99.90;;;;;;6216228;23;20051;-80
2023/03/03 08:47:34;;;;;;;20.35;2.97;;;2.90;99.90;;;;;;6190933;23;20013;-81
2023/03/03 08:50:00;;;;;;;10.70;2.42;;;2.80;99.90;;;;;;6166383;23;20342;-82
2023/03/03 08:52:25;;;;;;;22.63;3.22;;;2.90;99.90;;;;;;6218266;23;20008;-79
2023/03/03 08:54:51;;;;;;;19.90;3.28;;;2.80;99.90;;;;;;6191176;23;20020;-78
2023/03/03 08:57:17;;;;;;;7.78;1.77;;;2.90;99.90;;;;;;6191676;23;20008;-78
2023/03/03 08:59:44;;;;;;;11.50;1.88;;;3.20;99.90;;;;;;6166428;23;20012;-79
2023/03/03 09:02:09;;;;;;;20.85;3.05;;;3.30;99.90;;;;;;6191144;23;20020;-80
2023/03/03 09:04:35;;;;;;;14.30;2.30;;;3.10;99.90;;;;;;6191212;23;20353;-79
2023/03/03 09:07:01;;;;;;;13.52;2.20;;;3.30;99.90;;;;;;6191103;23;20095;-81
2023/03/03 09:09:27;;;;;;;13.07;2.83;;;3.20;99.90;;;;;;6191318;23;20320;-76
2023/03/03 09:11:57;;;;;;;16.13;2.78;;;3.40;99.90;;;;;;6166071;23;20012;-76
2023/03/03 09:14:27;;;;;;;15.25;3.95;;;3.50;99.90;;;;;;6191630;23;20051;-85
2023/03/03 09:16:55;;;;;;;6.60;1.67;;;3.50;99.90;;;;;;6191355;23;20058;-83
2023/03/03 09:19:20;;;;;;;6.72;1.40;;;3.70;99.90;;;;;;6191045;23;20005;-84
2023/03/03 09:21:46;;;;;;;1.58;0.80;;;3.70;99.90;;;;;;6191271;23;20544;-77
2023/03/03 09:24:25;;;;;;;1.20;0.70;;;3.40;99.90;;;;;;6166152;23;20013;-76
2023/03/03 09:26:51;;;;;;;6.43;1.20;;;3.60;99.90;;;;;;6190920;23;20091;-76
2023/03/03 09:29:29;;;;;;;1.92;0.85;;;3.50;99.90;;;;;;6190829;23;20505;-76
2023/03/03 09:31:58;;;;;;;2.40;0.90;;;3.60;99.90;;;;;;6191194;23;20087;-76
2023/03/03 09:34:40;;;;;;;1.63;1.00;;;3.60;99.90;;;;;;6190651;23;20016;-77
2023/03/03 09:37:22;;;;;;;3.47;1.02;;;3.50;99.90;;;;;;6191300;23;20066;-77
2023/03/03 09:39:52;;;;;;;1.50;0.77;;;3.50;99.90;;;;;;6217674;23;20008;-77
2023/03/03 09:42:41;;;;;;;1.65;0.80;;;3.60;99.90;;;;;;6190922;23;20023;-77
2023/03/03 09:45:22;;;;;;;1.85;0.80;;;3.50;99.90;;;;;;6190822;23;20016;-77
2023/03/03 09:48:19;;;;;;;1.20;0.90;;;3.80;99.90;;;;;;6217410;23;20446;-78
2023/03/03 09:51:19;;;;;;;0.82;0.70;;;3.60;99.90;;;;;;6217765;23;20370;-77
2023/03/03 09:54:08;;;;;;;0.60;0.60;;;3.90;99.90;;;;;;6196244;23;20441;-77
2023/03/03 09:56:50;;;;;;;2.22;0.98;;;3.90;99.90;;;;;;6190630;23;20013;-78
2023/03/03 09:59:51;;;;;;;1.10;0.68;;;3.70;99.90;;;;;;6217198;23;20020;-78
2023/03/03 10:03:18;;;;;;;0.50;0.50;;;3.80;99.90;;;;;;6072011;23;20037;-78
2023/03/03 10:05:51;;;;;;;0.50;0.50;;;3.70;99.90;;;;;;6014803;23;20011;-75
2023/03/03 10:08:43;;;;;;;0.45;0.45;;;4.00;99.90;;;;;;5992175;23;20015;-87
2023/03/03 10:11:18;;;;;;;0.40;0.40;;;4.00;99.90;;;;;;6015828;23;20015;-84
2023/03/03 10:14:20;;;;;;;0.50;0.50;;;3.90;99.90;;;;;;6015162;23;20056;-83
2023/03/03 10:16:57;;;;;;;0.47;0.47;;;4.10;99.90;;;;;;6014911;23;20378;-83
2023/03/03 10:19:36;;;;;;;0.45;0.45;;;4.00;99.90;;;;;;6015323;23;20021;-86
2023/03/03 10:22:13;;;;;;;0.35;0.35;;;4.30;99.90;;;;;;6038783;23;20492;-85
2023/03/03 10:24:56;;;;;;;0.40;0.40;;;4.10;99.90;;;;;;6015631;23;20090;-86
2023/03/03 10:27:57;;;;;;;0.40;0.40;;;4.20;99.90;;;;;;5991700;23;20019;-82
2023/03/03 10:30:38;;;;;;;;;;;4.40;99.90;;;;;;6039850;23;20023;-73
2023/03/03 10:33:25;;;;;;;0.40;0.40;;;4.30;99.90;;;;;;6014644;23;19921;-80
2023/03/03 10:36:09;;;;;;;0.47;0.47;;;4.30;99.90;;;;;;6066411;23;20104;-75
2023/03/03 10:38:56;;;;;;;0.43;0.43;;;4.60;99.90;;;;;;6165284;23;20013;-75
2023/03/03 10:41:42;;;;;;;0.30;0.30;;;4.50;99.90;;;;;;6190049;23;20016;-75
2023/03/03 10:44:17;;;;;;;0.30;0.30;;;4.60;99.90;;;;;;6190226;23;20016;-74
2023/03/03 10:47:02;;;;;;;0.40;0.40;;;4.70;99.90;;;;;;6190106;23;20013;-75
2023/03/03 10:50:01;;;;;;;0.40;0.40;;;4.70;99.90;;;;;;6190126;23;20417;-75
2023/03/03 10:52:52;;;;;;;0.47;0.47;;;4.80;99.90;;;;;;6190155;23;20028;-74
2023/03/03 10:55:51;;;;;;;0.38;0.38;;;4.90;99.90;;;;;;6215827;23;20048;-73
2023/03/03 10:58:37;;;;;;;0.40;0.40;;;4.90;99.90;;;;;;6174540;23;20449;-73
2023/03/03 11:01:20;;;;;;;0.30;0.30;;;5.00;99.90;;;;;;6216549;23;20013;-76
2023/03/03 11:03:54;;;;;;;0.40;0.40;;;5.20;99.90;;;;;;6216988;23;20024;-76
2023/03/03 11:06:47;;;;;;;0.32;0.32;;;5.30;99.90;;;;;;6190059;23;20025;-73
2023/03/03 11:09:16;;;;;;;0.50;0.50;;;5.10;99.90;;;;;;6165164;23;20437;-74
2023/03/03 11:11:59;;;;;;;0.40;0.40;;;5.20;99.90;;;;;;6216947;23;20044;-74
2023/03/03 11:14:48;;;;;;;0.40;0.40;;;5.30;99.90;;;;;;6189960;23;20023;-79
2023/03/03 11:17:16;;;;;;;0.40;0.40;;;5.40;99.90;;;;;;6190197;23;20019;-80
2023/03/03 11:19:51;;;;;;;0.40;0.40;;;5.60;99.90;;;;;;6190115;23;20345;-83
2023/03/03 11:23:01;;;;;;;0.38;0.38;;;5.60;99.90;;;;;;6191093;23;20306;-82
2023/03/03 11:25:42;;;;;;;0.50;0.50;;;5.60;99.90;;;;;;6165411;23;20417;-83
2023/03/03 11:28:14;;;;;;;0.40;0.40;;;5.70;99.90;;;;;;6217336;23;20422;-83
2023/03/03 11:30:58;;;;;;;0.40;0.40;;;5.80;99.90;;;;;;6217048;23;20052;-80
2023/03/03 11:33:38;;;;;;;0.40;0.40;;;6.00;99.90;;;;;;6190617;23;20117;-84
2023/03/03 11:36:15;;;;;;;0.40;0.40;;;6.00;99.90;;;;;;6190195;23;20051;-92
2023/03/03 11:38:47;;;;;;;0.30;0.30;;;6.10;99.90;;;;;;6191483;23;20004;-92
2023/03/03 11:41:42;;;;;;;0.47;0.47;;;6.20;99.90;;;;;;6216534;23;20013;-83
2023/03/03 11:44:32;;;;;;;0.30;0.30;;;6.20;99.90;;;;;;6190162;23;20023;-81
2023/03/03 11:47:40;;;;;;;0.35;0.35;;;6.20;99.90;;;;;;6164724;23;20075;-73
2023/03/03 11:50:57;;;;;;;0.30;0.30;;;6.30;99.90;;;;;;6173716;23;20016;-73
2023/03/03 11:53:46;;;;;;;0.30;0.30;;;6.50;99.90;;;;;;6182138;23;20088;-72
2023/03/03 11:56:27;;;;;;;0.40;0.40;;;6.70;99.90;;;;;;6189938;23;20151;-74
2023/03/03 11:58:59;;;;;;;0.30;0.30;;;6.70;99.90;;;;;;6164980;23;20044;-81
2023/03/03 12:01:43;;;;;;;0.40;0.40;;;6.80;99.90;;;;;;6165021;23;20019;-81
2023/03/03 12:04:13;;;;;;;0.40;0.40;;;6.90;99.90;;;;;;6215995;23;20459;-81
2023/03/03 12:06:45;;;;;;;;;;;7.00;99.90;;;;;;6190014;23;20012;-81
2023/03/03 12:09:29;;;;;;;0.40;0.40;;;7.00;99.90;;;;;;6164510;23;19911;-81
2023/03/03 12:12:05;;;;;;;0.40;0.40;;;7.10;99.90;;;;;;6189262;23;20016;-82
2023/03/03 12:15:03;;;;;;;0.40;0.40;;;7.00;99.90;;;;;;6164643;23;20548;-82
2023/03/03 12:17:49;;;;;;;0.30;0.30;;;7.10;99.90;;;;;;6189330;23;20020;-82
2023/03/03 12:20:28;;;;;;;0.38;0.38;;;7.30;99.90;;;;;;6189756;23;20009;-82
2023/03/03 12:23:06;;;;;;;0.40;0.40;;;7.40;99.90;;;;;;6189123;23;20016;-83
2023/03/03 12:25:38;;;;;;;0.40;0.40;;;7.40;99.90;;;;;;6189863;23;20017;-82
2023/03/03 12:28:23;;;;;;;0.40;0.40;;;7.50;99.90;;;;;;6216362;23;20024;-81
2023/03/03 12:31:02;;;;;;;0.30;0.30;;;7.50;99.90;;;;;;6189359;23;20095;-82
2023/03/03 12:33:49;;;;;;;0.40;0.40;;;7.60;99.90;;;;;;6164457;23;20087;-83
2023/03/03 12:36:26;;;;;;;0.40;0.40;;;7.60;99.90;;;;;;6189488;23;20017;-82
2023/03/03 12:39:19;;;;;;;0.30;0.30;;;7.60;99.90;;;;;;6189257;23;20340;-81
2023/03/03 12:42:07;;;;;;;0.40;0.40;;;7.50;99.90;;;;;;6164228;23;20017;-81
2023/03/03 12:44:51;;;;;;;0.30;0.30;;;7.40;99.90;;;;;;6189264;23;20091;-81
2023/03/03 12:47:44;;;;;;;0.30;0.30;;;7.30;99.90;;;;;;6189168;23;20016;-81
2023/03/03 12:50:41;;;;;;;0.68;0.30;;;7.20;99.90;;;;;;6164443;23;20067;-81
2023/03/03 12:53:28;;;;;;;0.43;0.43;;;7.30;99.90;;;;;;6188986;23;20378;-82
2023/03/03 12:56:03;;;;;;;0.30;0.30;;;7.90;99.90;;;;;;6216137;23;20043;-83
2023/03/03 12:59:06;;;;;;;0.30;0.30;;;8.50;99.90;;;;;;6164308;23;20449;-83
2023/03/03 13:02:11;;;;;;;0.30;0.30;;;8.70;99.90;;;;;;6164556;23;20016;-80
2023/03/03 13:04:42;;;;;;;0.30;0.30;;;8.50;99.90;;;;;;6188068;23;20019;-82
2023/03/03 13:07:11;;;;;;;0.30;0.30;;;8.30;99.90;;;;;;6216107;23;20074;-84
2023/03/03 13:09:54;;;;;;;0.40;0.40;;;8.30;99.90;;;;;;6215993;23;20023;-74
2023/03/03 13:12:51;;;;;;;0.40;0.40;;;8.10;99.90;;;;;;6216166;23;20024;-72
2023/03/03 13:15:17;;;;;;;0.30;0.30;;;8.00;99.90;;;;;;6187813;23;20311;-74
2023/03/03 13:18:04;;;;;;;0.30;0.30;;;7.90;99.90;;;;;;6216055;23;20092;-74
2023/03/03 13:20:54;;;;;;;0.30;0.30;;;7.80;99.90;;;;;;6215546;23;20012;-74
2023/03/03 13:23:50;;;;;;;0.40;0.40;;;7.70;99.90;;;;;;6215940;23;20044;-74
2023/03/03 13:26:45;;;;;;;1.30;0.60;;;7.70;99.90;;;;;;6216094;23;20076;-73